createdAt,value
2018-11-02T00:00:50.009Z,9.43
2018-11-02T00:03:18.337Z,8.63
2018-11-02T00:05:46.733Z,9.60
2018-11-02T00:08:15.177Z,9.37
2018-11-02T00:10:43.550Z,10.10
2018-11-02T00:13:11.970Z,9.70
2018-11-02T00:15:40.412Z,9.90
2018-11-02T00:18:08.765Z,9.40
2018-11-02T00:20:37.190Z,9.70
2018-11-02T00:23:05.641Z,9.17
2018-11-02T00:25:33.988Z,8.77
2018-11-02T00:28:02.374Z,8.90
2018-11-02T00:30:30.754Z,9.13
2018-11-02T00:32:59.066Z,9.20
2018-11-02T00:35:27.396Z,8.77
2018-11-02T00:37:55.878Z,9.37
2018-11-02T00:40:24.188Z,8.97
2018-11-02T00:42:52.655Z,10.00
2018-11-02T00:45:21.101Z,8.87
2018-11-02T00:47:49.454Z,9.50
2018-11-02T00:50:17.795Z,9.70
2018-11-02T00:52:46.161Z,9.60
2018-11-02T00:55:14.509Z,8.97
2018-11-02T00:57:42.804Z,9.70
2018-11-02T01:00:12.987Z,8.90
2018-11-02T01:02:41.576Z,9.63
2018-11-02T01:05:10.332Z,9.13
2018-11-02T01:07:38.898Z,8.53
2018-11-02T01:10:07.545Z,8.77
2018-11-02T01:12:36.804Z,9.47
2018-11-02T01:15:06.414Z,9.63
2018-11-02T01:17:35.014Z,9.60
2018-11-02T01:20:03.472Z,9.47
2018-11-02T01:22:31.829Z,9.20
2018-11-02T01:25:00.761Z,9.67
2018-11-02T01:27:29.239Z,8.77
2018-11-02T01:29:57.640Z,9.43
2018-11-02T01:32:25.934Z,8.67
2018-11-02T01:34:54.341Z,8.97
2018-11-02T01:37:22.739Z,8.93
2018-11-02T01:39:51.053Z,9.17
2018-11-02T01:42:19.393Z,9.17
2018-11-02T01:44:47.726Z,9.20
2018-11-02T01:47:16.180Z,9.13
2018-11-02T01:49:44.521Z,9.83
2018-11-02T01:52:13.014Z,10.57
2018-11-02T01:54:41.289Z,9.30
2018-11-02T01:57:09.586Z,9.10
2018-11-02T01:59:37.906Z,9.10
2018-11-02T02:02:06.186Z,9.60
2018-11-02T02:04:34.591Z,9.40
2018-11-02T02:07:02.854Z,8.53
2018-11-02T02:09:31.117Z,9.43
2018-11-02T02:11:59.380Z,8.47
2018-11-02T02:14:27.661Z,9.10
2018-11-02T02:16:55.933Z,9.07
2018-11-02T02:19:24.229Z,9.17
2018-11-02T02:21:52.502Z,8.67
2018-11-02T02:24:20.774Z,8.97
2018-11-02T02:26:49.042Z,9.00
2018-11-02T02:29:17.325Z,9.23
2018-11-02T02:31:45.618Z,9.30
2018-11-02T02:34:13.953Z,9.17
2018-11-02T02:36:42.245Z,9.07
2018-11-02T02:39:11.005Z,9.23
2018-11-02T02:41:39.726Z,8.37
2018-11-02T02:44:08.250Z,9.40
2018-11-02T02:46:36.656Z,7.97
2018-11-02T02:49:05.857Z,8.30
2018-11-02T02:51:34.114Z,8.00
2018-11-02T02:54:02.381Z,8.70
2018-11-02T02:56:30.645Z,8.40
2018-11-02T02:58:58.949Z,8.33
2018-11-02T03:01:27.233Z,8.17
2018-11-02T03:03:55.982Z,7.97
2018-11-02T03:06:24.269Z,8.27
2018-11-02T03:08:52.587Z,8.53
2018-11-02T03:11:20.911Z,8.17
2018-11-02T03:13:49.169Z,8.20
2018-11-02T03:16:17.444Z,8.20
2018-11-02T03:18:45.865Z,8.00
2018-11-02T03:21:14.133Z,8.60
2018-11-02T03:23:42.393Z,8.10
2018-11-02T03:26:10.669Z,8.23
2018-11-02T03:28:38.962Z,7.93
2018-11-02T03:31:07.244Z,7.80
2018-11-02T03:33:35.519Z,7.47
2018-11-02T03:36:03.811Z,7.60
2018-11-02T03:38:32.104Z,7.80
2018-11-02T03:41:00.358Z,7.50
2018-11-02T03:43:28.658Z,8.10
2018-11-02T03:45:56.914Z,8.30
2018-11-02T03:48:25.209Z,7.53
2018-11-02T03:50:53.573Z,7.97
2018-11-02T03:53:21.830Z,7.87
2018-11-02T03:55:50.237Z,8.57
2018-11-02T03:58:18.502Z,7.97
2018-11-02T04:00:46.796Z,8.30
2018-11-02T04:03:15.058Z,8.37
2018-11-02T04:05:43.345Z,7.50
2018-11-02T04:08:11.606Z,7.87
2018-11-02T04:10:39.861Z,7.70
2018-11-02T04:13:08.170Z,8.10
2018-11-02T04:15:36.436Z,7.47
2018-11-02T04:18:05.279Z,8.43
2018-11-02T04:20:33.566Z,8.20
2018-11-02T04:23:01.852Z,7.93
2018-11-02T04:25:30.110Z,7.90
2018-11-02T04:27:58.438Z,8.10
2018-11-02T04:30:26.727Z,7.63
2018-11-02T04:32:54.994Z,7.23
2018-11-02T04:35:23.309Z,7.80
2018-11-02T04:37:51.569Z,7.93
2018-11-02T04:40:19.821Z,7.77
2018-11-02T04:42:48.081Z,7.70
2018-11-02T04:45:20.581Z,8.30
2018-11-02T04:47:48.905Z,7.37
2018-11-02T04:50:17.191Z,7.97
2018-11-02T04:52:45.449Z,7.60
2018-11-02T04:55:13.721Z,7.47
2018-11-02T04:57:41.995Z,7.77
2018-11-02T05:00:10.663Z,7.53
2018-11-02T05:02:39.119Z,7.50
2018-11-02T05:05:07.354Z,8.40
2018-11-02T05:07:35.611Z,7.73
2018-11-02T05:10:03.934Z,7.80
2018-11-02T05:12:32.229Z,7.90
2018-11-02T05:15:00.507Z,7.53
2018-11-02T05:17:28.785Z,7.83
2018-11-02T05:19:57.085Z,7.80
2018-11-02T05:22:25.386Z,7.83
2018-11-02T05:24:53.664Z,7.70
2018-11-02T05:27:21.945Z,8.33
2018-11-02T05:29:50.209Z,7.60
2018-11-02T05:32:18.464Z,7.90
2018-11-02T05:34:46.757Z,7.90
2018-11-02T05:37:15.028Z,7.67
2018-11-02T05:39:43.340Z,7.27
2018-11-02T05:42:11.627Z,7.20
2018-11-02T05:44:39.904Z,8.37
2018-11-02T05:47:08.218Z,7.37
2018-11-02T05:49:36.485Z,7.60
2018-11-02T05:52:04.786Z,7.93
2018-11-02T05:54:33.097Z,8.67
2018-11-02T05:57:01.485Z,8.23
2018-11-02T05:59:29.737Z,8.33
2018-11-02T06:01:58.009Z,8.30
2018-11-02T06:04:26.283Z,7.93
2018-11-02T06:06:54.549Z,8.40
2018-11-02T06:09:22.875Z,8.20
2018-11-02T06:11:51.138Z,8.23
2018-11-02T06:14:19.421Z,7.57
2018-11-02T06:16:47.774Z,7.90
2018-11-02T06:19:16.336Z,7.90
2018-11-02T06:21:44.809Z,8.00
2018-11-02T06:24:13.122Z,7.60
2018-11-02T06:26:41.403Z,8.50
2018-11-02T06:29:09.978Z,8.20
2018-11-02T06:31:38.295Z,7.77
2018-11-02T06:34:06.895Z,7.97
2018-11-02T06:36:35.497Z,7.80
2018-11-02T06:39:03.965Z,8.00
2018-11-02T06:41:32.250Z,7.77
2018-11-02T06:44:00.529Z,8.07
2018-11-02T06:46:28.857Z,8.90
2018-11-02T06:48:57.129Z,8.93
2018-11-02T06:51:25.425Z,8.37
2018-11-02T06:53:53.698Z,8.93
2018-11-02T06:56:21.978Z,8.60
2018-11-02T06:58:50.241Z,7.63
2018-11-02T07:01:18.543Z,7.77
2018-11-02T07:03:53.346Z,8.37
2018-11-02T07:06:21.781Z,8.17
2018-11-02T07:08:50.057Z,8.60
2018-11-02T07:11:18.342Z,7.80
2018-11-02T07:13:46.609Z,7.63
2018-11-02T07:16:14.996Z,7.67
2018-11-02T07:18:43.346Z,7.60
2018-11-02T07:21:11.666Z,7.93
2018-11-02T07:23:40.088Z,7.43
2018-11-02T07:26:08.436Z,8.10
2018-11-02T07:28:36.713Z,7.80
2018-11-02T07:31:05.384Z,8.03
2018-11-02T07:33:33.674Z,7.43
2018-11-02T07:36:01.935Z,8.50
2018-11-02T07:38:30.305Z,7.80
2018-11-02T07:40:58.613Z,8.60
2018-11-02T07:43:26.946Z,7.77
2018-11-02T07:45:55.202Z,7.87
2018-11-02T07:48:23.593Z,7.37
2018-11-02T07:50:51.851Z,7.20
2018-11-02T07:53:20.475Z,7.10
2018-11-02T07:55:48.760Z,7.53
2018-11-02T07:58:17.139Z,7.10
2018-11-02T08:00:45.466Z,7.60
2018-11-02T08:03:13.817Z,6.77
2018-11-02T08:05:42.133Z,7.00
2018-11-02T08:08:10.549Z,6.83
2018-11-02T08:10:38.897Z,6.27
2018-11-02T08:13:07.184Z,6.80
2018-11-02T08:15:35.498Z,6.33
2018-11-02T08:18:03.793Z,6.77
2018-11-02T08:20:32.114Z,6.13
2018-11-02T08:23:00.445Z,6.77
2018-11-02T08:25:28.745Z,6.73
2018-11-02T08:27:57.090Z,6.43
2018-11-02T08:30:25.369Z,6.50
2018-11-02T08:32:53.624Z,6.33
2018-11-02T08:35:22.022Z,6.47
2018-11-02T08:37:50.381Z,6.27
2018-11-02T08:40:18.748Z,5.80
2018-11-02T08:42:46.996Z,6.03
2018-11-02T08:45:15.379Z,6.43
2018-11-02T08:47:43.632Z,6.47
2018-11-02T08:50:12.641Z,6.07
2018-11-02T08:52:41.282Z,6.67
2018-11-02T08:55:09.811Z,6.13
2018-11-02T08:57:38.528Z,5.90
2018-11-02T09:00:08.841Z,6.30
2018-11-02T09:02:37.113Z,5.67
2018-11-02T09:05:06.028Z,5.67
2018-11-02T09:07:34.308Z,5.77
2018-11-02T09:10:02.588Z,5.77
2018-11-02T09:12:30.913Z,5.80
2018-11-02T09:14:59.193Z,5.40
2018-11-02T09:17:27.451Z,5.37
2018-11-02T09:19:55.773Z,5.27
2018-11-02T09:22:24.073Z,5.47
2018-11-02T09:24:52.361Z,5.70
2018-11-02T09:27:20.718Z,5.20
2018-11-02T09:29:49.003Z,5.00
2018-11-02T09:32:17.292Z,5.47
2018-11-02T09:34:45.583Z,4.97
2018-11-02T09:37:13.853Z,5.43
2018-11-02T09:39:42.254Z,6.20
2018-11-02T09:42:10.554Z,5.07
2018-11-02T09:44:38.921Z,5.03
2018-11-02T09:47:07.196Z,5.30
2018-11-02T09:49:35.576Z,5.53
2018-11-02T09:52:04.073Z,5.53
2018-11-02T09:54:32.342Z,5.53
2018-11-02T09:57:00.618Z,5.10
2018-11-02T09:59:28.916Z,4.33
2018-11-02T10:01:57.331Z,4.87
2018-11-02T10:04:25.569Z,5.50
2018-11-02T10:06:53.895Z,4.87
2018-11-02T10:09:22.349Z,5.20
2018-11-02T10:11:50.506Z,4.60
2018-11-02T10:14:18.800Z,4.73
2018-11-02T10:16:47.108Z,4.33
2018-11-02T10:19:15.393Z,4.77
2018-11-02T10:21:43.710Z,5.07
2018-11-02T10:24:12.017Z,5.03
2018-11-02T10:26:40.316Z,4.43
2018-11-02T10:29:08.656Z,4.30
2018-11-02T10:31:36.938Z,4.53
2018-11-02T10:34:05.266Z,3.97
2018-11-02T10:36:33.949Z,3.80
2018-11-02T10:39:02.275Z,4.20
2018-11-02T10:41:32.695Z,4.10
2018-11-02T10:44:01.009Z,4.43
2018-11-02T10:46:29.318Z,4.20
2018-11-02T10:48:57.605Z,3.90
2018-11-02T10:51:25.891Z,3.70
2018-11-02T10:53:54.162Z,3.97
2018-11-02T10:56:22.620Z,4.07
2018-11-02T10:58:50.859Z,3.60
2018-11-02T11:01:24.681Z,4.37
2018-11-02T11:03:52.935Z,4.00
2018-11-02T11:06:21.245Z,3.93
2018-11-02T11:08:49.520Z,3.93
2018-11-02T11:11:17.862Z,3.87
2018-11-02T11:13:46.543Z,4.00
2018-11-02T11:16:14.454Z,3.73
2018-11-02T11:18:42.993Z,3.90
2018-11-02T11:21:11.295Z,3.87
2018-11-02T11:23:39.580Z,4.00
2018-11-02T11:26:07.924Z,4.30
2018-11-02T11:28:36.277Z,3.60
2018-11-02T11:31:04.807Z,4.13
2018-11-02T11:33:33.242Z,3.40
2018-11-02T11:36:01.537Z,4.00
2018-11-02T11:38:29.826Z,4.10
2018-11-02T11:40:58.136Z,3.47
2018-11-02T11:43:26.485Z,3.73
2018-11-02T11:45:54.774Z,3.60
2018-11-02T11:48:23.069Z,4.10
2018-11-02T11:50:51.360Z,3.43
2018-11-02T11:53:19.649Z,3.80
2018-11-02T11:55:47.908Z,3.90
2018-11-02T11:58:16.323Z,3.60
2018-11-02T12:00:44.678Z,4.00
2018-11-02T12:03:12.918Z,3.80
2018-11-02T12:05:41.205Z,3.40
2018-11-02T12:08:09.505Z,3.20
2018-11-02T12:10:37.773Z,3.80
2018-11-02T12:13:06.099Z,3.67
2018-11-02T12:15:34.379Z,3.90
2018-11-02T12:18:02.666Z,4.00
2018-11-02T12:20:30.959Z,4.20
2018-11-02T12:23:03.242Z,3.73
2018-11-02T12:25:31.726Z,3.90
2018-11-02T12:28:00.045Z,3.40
2018-11-02T12:30:28.313Z,3.70
2018-11-02T12:32:56.604Z,3.73
2018-11-02T12:35:24.911Z,3.80
2018-11-02T12:37:53.213Z,4.20
2018-11-02T12:40:22.663Z,3.83
2018-11-02T12:42:51.890Z,3.53
2018-11-02T12:45:21.081Z,4.03
2018-11-02T12:47:50.557Z,3.87
2018-11-02T12:50:21.421Z,3.70
2018-11-02T12:52:50.747Z,3.93
2018-11-02T12:55:19.669Z,3.23
2018-11-02T12:57:47.921Z,3.10
2018-11-02T13:00:17.641Z,3.47
2018-11-02T13:02:46.815Z,3.73
2018-11-02T13:05:15.089Z,3.20
2018-11-02T13:07:43.567Z,3.80
2018-11-02T13:10:13.463Z,3.10
2018-11-02T13:12:41.813Z,3.30
2018-11-02T13:15:11.944Z,3.27
2018-11-02T13:17:41.047Z,4.03
2018-11-02T13:20:09.623Z,3.60
2018-11-02T13:22:38.327Z,3.70
2018-11-02T13:25:07.862Z,4.00
2018-11-02T13:27:36.187Z,3.77
2018-11-02T13:30:04.964Z,4.00
2018-11-02T13:32:33.200Z,3.47
2018-11-02T13:35:01.526Z,3.17
2018-11-02T13:37:29.833Z,3.30
2018-11-02T13:39:58.142Z,3.57
2018-11-02T13:42:26.428Z,3.50
2018-11-02T13:44:54.870Z,3.80
2018-11-02T13:47:23.146Z,3.20
2018-11-02T13:49:51.453Z,3.73
2018-11-02T13:52:19.727Z,3.30
2018-11-02T13:54:48.036Z,3.63
2018-11-02T13:57:16.326Z,3.60
2018-11-02T13:59:44.639Z,3.27
2018-11-02T14:02:12.928Z,3.47
2018-11-02T14:04:41.306Z,3.50
2018-11-02T14:07:09.735Z,3.00
2018-11-02T14:09:38.046Z,3.30
2018-11-02T14:12:06.349Z,3.20
2018-11-02T14:14:34.745Z,3.20
2018-11-02T14:17:03.050Z,2.90
2018-11-02T14:19:31.477Z,3.23
2018-11-02T14:21:59.540Z,2.97
2018-11-02T14:24:27.617Z,3.40
2018-11-02T14:26:55.688Z,3.60
2018-11-02T14:29:23.788Z,3.80
2018-11-02T14:31:51.820Z,3.70
2018-11-02T14:34:19.977Z,3.60
2018-11-02T14:36:48.129Z,3.50
2018-11-02T14:39:16.262Z,4.13
2018-11-02T14:41:44.869Z,3.30
2018-11-02T14:44:13.001Z,3.80
2018-11-02T14:46:41.246Z,4.23
2018-11-02T14:49:09.169Z,4.07
2018-11-02T14:51:37.252Z,4.03
2018-11-02T14:54:05.460Z,5.00
2018-11-02T14:56:33.570Z,4.40
2018-11-02T14:59:01.730Z,4.40
2018-11-02T15:01:29.997Z,3.90
2018-11-02T15:03:58.594Z,4.50
2018-11-02T15:06:26.664Z,3.73
2018-11-02T15:08:55.139Z,3.80
2018-11-02T15:11:23.245Z,4.23
2018-11-02T15:13:51.468Z,3.90
2018-11-02T15:16:19.568Z,4.53
2018-11-02T15:18:47.636Z,3.83
2018-11-02T15:21:15.660Z,3.77
2018-11-02T15:23:43.712Z,4.47
2018-11-02T15:26:11.804Z,4.57
2018-11-02T15:28:39.829Z,5.00
2018-11-02T15:31:07.979Z,4.53
2018-11-02T15:33:36.048Z,4.67
2018-11-02T15:36:04.097Z,4.30
2018-11-02T15:38:32.155Z,4.10
2018-11-02T15:41:00.245Z,5.10
2018-11-02T15:43:28.310Z,4.40
2018-11-02T15:45:56.373Z,4.70
2018-11-02T15:48:24.460Z,4.20
2018-11-02T15:50:52.554Z,4.10
2018-11-02T15:53:20.743Z,4.80
2018-11-02T15:55:48.714Z,4.90
2018-11-02T15:58:16.761Z,5.87
2018-11-02T16:00:44.931Z,6.17
2018-11-02T16:03:12.930Z,5.67
2018-11-02T16:05:41.011Z,6.07
2018-11-02T16:08:09.379Z,7.03
2018-11-02T16:10:37.718Z,6.20
2018-11-02T16:13:06.018Z,6.10
2018-11-02T16:15:34.579Z,5.00
2018-11-02T16:18:02.957Z,5.13
2018-11-02T16:20:31.298Z,4.80
2018-11-02T16:22:59.537Z,5.00
2018-11-02T16:25:27.889Z,4.27
2018-11-02T16:27:56.165Z,4.53
2018-11-02T16:30:24.510Z,4.67
2018-11-02T16:32:52.819Z,7.40
2018-11-02T16:35:21.149Z,6.20
2018-11-02T16:37:49.470Z,6.63
2018-11-02T16:40:17.784Z,6.13
2018-11-02T16:42:46.378Z,6.53
2018-11-02T16:45:15.224Z,6.43
2018-11-02T16:47:44.068Z,8.57
2018-11-02T16:50:13.429Z,9.63
2018-11-02T16:52:42.365Z,10.50
2018-11-02T16:55:10.930Z,8.67
2018-11-02T16:57:39.894Z,7.40
2018-11-02T17:00:10.487Z,6.70
2018-11-02T17:02:38.819Z,7.50
2018-11-02T17:05:07.775Z,5.03
2018-11-02T17:07:35.938Z,5.43
2018-11-02T17:10:04.468Z,5.90
2018-11-02T17:12:42.075Z,5.13
2018-11-02T17:15:11.360Z,8.87
2018-11-02T17:17:39.663Z,6.70
2018-11-02T17:20:15.473Z,8.73
2018-11-02T17:22:43.788Z,5.60
2018-11-02T17:25:12.829Z,5.60
2018-11-02T17:27:41.133Z,5.60
2018-11-02T17:30:12.433Z,7.53
2018-11-02T17:32:41.103Z,6.47
2018-11-02T17:35:10.169Z,6.20
2018-11-02T17:37:38.469Z,6.03
2018-11-02T17:40:08.633Z,6.07
2018-11-02T17:42:37.010Z,6.43
2018-11-02T17:45:06.321Z,7.07
2018-11-02T17:47:34.898Z,6.40
2018-11-02T17:50:04.173Z,7.30
2018-11-02T17:52:32.481Z,7.47
2018-11-02T17:55:00.760Z,9.27
2018-11-02T17:57:29.029Z,7.03
2018-11-02T17:59:58.355Z,7.73
2018-11-02T18:02:26.837Z,6.97
2018-11-02T18:04:55.411Z,6.60
2018-11-02T18:07:23.786Z,7.03
2018-11-02T18:09:52.097Z,6.60
2018-11-02T18:12:20.743Z,6.60
2018-11-02T18:14:51.918Z,6.83
2018-11-02T18:17:20.247Z,6.90
2018-11-02T18:19:48.593Z,6.07
2018-11-02T18:22:16.980Z,6.77
2018-11-02T18:24:45.427Z,6.70
2018-11-02T18:27:13.841Z,6.50
2018-11-02T18:29:42.164Z,6.50
2018-11-02T18:32:10.454Z,5.97
2018-11-02T18:34:38.790Z,6.87
2018-11-02T18:37:07.226Z,6.57
2018-11-02T18:39:35.506Z,6.60
2018-11-02T18:42:03.864Z,6.90
2018-11-02T18:44:32.217Z,7.00
2018-11-02T18:47:00.589Z,6.33
2018-11-02T18:49:28.917Z,9.50
2018-11-02T18:51:57.212Z,7.70
2018-11-02T18:54:25.505Z,7.33
2018-11-02T18:56:53.807Z,7.00
2018-11-02T18:59:22.153Z,6.97
2018-11-02T19:01:50.486Z,7.33
2018-11-02T19:04:19.000Z,7.40
2018-11-02T19:06:47.333Z,7.23
2018-11-02T19:09:15.657Z,8.20
2018-11-02T19:11:44.078Z,9.33
2018-11-02T19:14:12.420Z,7.73
2018-11-02T19:16:40.734Z,8.13
2018-11-02T19:19:09.047Z,8.37
2018-11-02T19:21:37.555Z,7.57
2018-11-02T19:24:05.904Z,8.93
2018-11-02T19:26:34.202Z,9.20
2018-11-02T19:29:02.517Z,8.70
2018-11-02T19:31:30.815Z,8.80
2018-11-02T19:33:59.252Z,9.27
2018-11-02T19:36:27.478Z,9.60
2018-11-02T19:38:55.783Z,9.37
2018-11-02T19:41:24.481Z,8.83
2018-11-02T19:43:52.891Z,10.73
2018-11-02T19:46:21.363Z,10.50
2018-11-02T19:48:49.882Z,10.67
2018-11-02T19:51:18.241Z,9.57
2018-11-02T19:53:46.776Z,8.20
2018-11-02T19:56:15.233Z,10.53
2018-11-02T19:58:43.572Z,11.00
2018-11-02T20:01:11.964Z,10.50
2018-11-02T20:03:40.198Z,10.33
2018-11-02T20:06:08.526Z,10.43
2018-11-02T20:08:36.808Z,9.37
2018-11-02T20:11:05.454Z,9.20
2018-11-02T20:13:33.826Z,8.57
2018-11-02T20:16:02.150Z,9.13
2018-11-02T20:18:30.457Z,8.90
2018-11-02T20:20:58.805Z,9.00
2018-11-02T20:23:33.474Z,9.13
2018-11-02T20:26:01.993Z,9.37
2018-11-02T20:28:30.327Z,10.00
2018-11-02T20:30:58.641Z,8.73
2018-11-02T20:33:26.929Z,9.33
2018-11-02T20:35:55.221Z,8.73
2018-11-02T20:38:23.531Z,9.67
2018-11-02T20:40:51.905Z,9.50
2018-11-02T20:43:20.442Z,9.10
2018-11-02T20:45:48.756Z,9.37
2018-11-02T20:48:17.045Z,8.97
2018-11-02T20:50:45.476Z,8.93
2018-11-02T20:53:13.810Z,9.97
2018-11-02T20:55:42.333Z,9.00
2018-11-02T20:58:10.742Z,9.20
2018-11-02T21:00:39.095Z,8.73
2018-11-02T21:03:07.446Z,9.27
2018-11-02T21:05:35.762Z,8.60
2018-11-02T21:08:04.138Z,8.77
2018-11-02T21:10:32.434Z,9.37
2018-11-02T21:13:00.872Z,9.13
2018-11-02T21:15:29.259Z,9.43
2018-11-02T21:17:57.625Z,9.43
2018-11-02T21:20:26.781Z,10.30
2018-11-02T21:22:55.268Z,9.80
2018-11-02T21:25:23.717Z,9.97
2018-11-02T21:27:52.161Z,9.67
2018-11-02T21:30:21.941Z,9.60
2018-11-02T21:32:50.943Z,9.73
2018-11-02T21:35:20.624Z,10.33
2018-11-02T21:37:49.384Z,10.80
2018-11-02T21:40:19.076Z,10.13
2018-11-02T21:42:47.424Z,10.87
2018-11-02T21:45:17.062Z,11.87
2018-11-02T21:47:46.022Z,10.67
2018-11-02T21:50:14.706Z,11.57
2018-11-02T21:52:43.292Z,11.13
2018-11-02T21:55:11.745Z,11.17
2018-11-02T21:57:40.220Z,11.40
2018-11-02T22:00:15.451Z,11.53
2018-11-02T22:02:44.219Z,11.37
2018-11-02T22:05:13.174Z,11.37
2018-11-02T22:07:42.682Z,10.60
2018-11-02T22:10:11.990Z,11.30
2018-11-02T22:12:40.359Z,11.27
2018-11-02T22:15:09.362Z,12.27
2018-11-02T22:17:37.829Z,11.80
2018-11-02T22:20:07.887Z,12.17
2018-11-02T22:22:36.296Z,12.37
2018-11-02T22:25:05.278Z,13.10
2018-11-02T22:27:33.686Z,12.87
2018-11-02T22:30:01.989Z,13.50
2018-11-02T22:32:30.307Z,13.30
2018-11-02T22:34:58.666Z,12.73
2018-11-02T22:37:27.034Z,14.33
2018-11-02T22:39:55.374Z,13.63
2018-11-02T22:42:23.703Z,14.20
2018-11-02T22:44:52.038Z,13.47
2018-11-02T22:47:20.414Z,14.30
2018-11-02T22:49:48.689Z,14.00
2018-11-02T22:52:17.111Z,13.80
2018-11-02T22:54:45.525Z,13.57
2018-11-02T22:57:13.805Z,13.60
2018-11-02T22:59:42.383Z,14.03
2018-11-02T23:02:10.899Z,14.70
2018-11-02T23:04:39.401Z,15.50
2018-11-02T23:07:07.790Z,14.93
2018-11-02T23:09:36.181Z,15.87
2018-11-02T23:12:04.507Z,15.30
2018-11-02T23:14:32.891Z,16.10
2018-11-02T23:17:01.340Z,16.47
2018-11-02T23:19:29.848Z,16.63
2018-11-02T23:21:58.059Z,16.30
2018-11-02T23:24:27.142Z,17.13
2018-11-02T23:26:55.617Z,17.07
2018-11-02T23:29:23.993Z,17.23
2018-11-02T23:31:52.357Z,16.57
2018-11-02T23:34:20.752Z,16.40
2018-11-02T23:36:49.025Z,16.63
2018-11-02T23:39:17.374Z,16.67
2018-11-02T23:41:45.725Z,16.10
2018-11-02T23:44:14.231Z,15.87
2018-11-02T23:46:43.388Z,16.77
2018-11-02T23:49:11.733Z,16.00
2018-11-02T23:51:40.034Z,16.40
2018-11-02T23:54:08.393Z,16.10
2018-11-02T23:56:36.709Z,16.53
2018-11-02T23:59:05.349Z,17.07
